ADDS TAF Board (Experimental) INFO Settings
IDs: Format: Expanded Condensed

KPIT - Pittsburgh Intl, PA, US

Issued at 0534 UTC 30 Aug 2015
Updated at: 0752 UTC 30 Aug 2015
Time0651Z 30/08Z 30/09Z 30/10Z 30/11Z 30/12Z 30/13Z 30/14Z 30/15Z 30/16Z 30/17Z 30/18Z 30/19Z 30/20Z
Type OBS PRVL PRVL PRVL PRVL PRVL PRVL PRVL PRVL PRVL PRVL PRVL PRVL PRVL
VIS 10 >6 >6 >6 >6 >6 >6 >6 >6 >6 >6 >6 >6 >6
CIG 150 100 100 100 100 100 100 100 100 100 100 100 50 50
Cover BKN BKN BKN BKN BKN BKN BKN BKN BKN BKN BKN BKN BKN BKN
FltCat VFR VFR VFR VFR VFR VFR VFR VFR VFR VFR VFR VFR VFR VFR
WX -- -- -- -- -- -- -- -- -- -- -- -- VCSH VCSH
WDir 200 VRB VRB VRB VRB VRB VRB VRB VRB VRB VRB VRB 250 250
WSpd 4 4 4 4 4 4 4 4 4 4 4 4 8 8
WGst -- -- -- -- -- -- -- -- -- -- -- -- -- --
R10/28
XWnd -4 VRB VRB VRB VRB VRB VRB VRB VRB VRB VRB VRB -3 -3
HWnd -1 VRB VRB VRB VRB VRB VRB VRB VRB VRB VRB VRB -7 -7
R14/32
XWnd -4 VRB VRB VRB VRB VRB VRB VRB VRB VRB VRB VRB -7 -7
HWnd 2 VRB VRB VRB VRB VRB VRB VRB VRB VRB VRB VRB -3 -3

NOTE: TEMPO conditions in [brackets]. Keep in mind TEMPO conditions might be better (lower impact) than prevailing conditions.

Raw TAF
KPIT 300534Z 3006/3112 VRB04KT P6SM BKN100
  FM301900 25008KT P6SM VCSH BKN050
  FM310300 VRB03KT P6SM BKN050


Raw METAR
KPIT 300651Z 20004KT 10SM SCT100 BKN150 22/17 A3009 RMK AO2 SLP185 T02170167
KPIT 300551Z 23003KT 10SM OVC095 23/17 A3009 RMK AO2 SLP188 T02280167 10267 20222 56005
KPIT 300451Z 22004KT 10SM FEW090 SCT120 SCT200 23/16 A3010 RMK AO2 SLP190 T02280161 402890128

METAR Board
Radar Display
Forecast Discussion

TAF Board Legend

Potential Impact
Threat None Slight Moderate High
Visibility (sm) ≥5.1 5.1>X≥3 3>X≥1 <1
Ceiling (100 ft) ≥30.1 30.1>X≥10 10>X≥5 <5
Wind Speed (kt) <10 10≤X<20 20≤X<30 ≥30
Wind Gust (kt) <15 15≤X<25 25≤X<35 ≥35
Weather No Wx Reported VCTS,-TS,-FZRA,SN TS,FZRA +TS,+FZRA,+SN